New Richmond, Canada
Current Conditions -  °F | °C
As of 5:00 PM on Monday 20 Oct 2014 (Local Time) from CZBF Reporting Station
Broken Clouds Broken Clouds  
Wind Chill: 35°   Ceiling: 3000
Heat Index: 41°   Visibility: 15mi
Dew Point: 27°   Wind: 9mph
Humidity: 57%   Direction: 280°W
Pressure: 29.75"   Gusts: 21mph
Location:  48.17°N, 65.83°W
Report Text: CZBF 202100Z 28008G18KT 250V320 15SM BKN030 05/M03 A2975 RMK SC6 SLP077
Loading
Personal Weather Stations






























Interactive Weather Map
Tropical Storm Tracking
New forecast layout! Learn more

10-Day Weather Forecast

Advertisements
Track Severe Weather on mobile